sensor_id;sensor_type;location;lat;lon;timestamp;temperature;humidity
23597;DHT22;40226;50.874;4.394;2022-07-01T00:00:58;13.80;99.90
23597;DHT22;40226;50.874;4.394;2022-07-01T00:03:23;13.90;99.90
23597;DHT22;40226;50.874;4.394;2022-07-01T00:05:49;13.80;99.90
23597;DHT22;40226;50.874;4.394;2022-07-01T00:08:15;13.80;99.90
23597;DHT22;40226;50.874;4.394;2022-07-01T00:10:40;13.70;99.90
23597;DHT22;40226;50.874;4.394;2022-07-01T00:13:06;13.70;99.90
23597;DHT22;40226;50.874;4.394;2022-07-01T00:15:32;13.60;99.90
23597;DHT22;40226;50.874;4.394;2022-07-01T00:17:58;13.60;99.90
23597;DHT22;40226;50.874;4.394;2022-07-01T00:20:24;13.60;99.90
23597;DHT22;40226;50.874;4.394;2022-07-01T00:22:50;13.60;99.90
23597;DHT22;40226;50.874;4.394;2022-07-01T00:25:15;13.60;99.90
23597;DHT22;40226;50.874;4.394;2022-07-01T00:27:41;13.60;99.90
23597;DHT22;40226;50.874;4.394;2022-07-01T00:30:08;13.50;99.90
23597;DHT22;40226;50.874;4.394;2022-07-01T00:32:34;13.60;99.90
23597;DHT22;40226;50.874;4.394;2022-07-01T00:34:59;13.60;99.90
23597;DHT22;40226;50.874;4.394;2022-07-01T00:37:25;13.70;99.90
23597;DHT22;40226;50.874;4.394;2022-07-01T00:39:51;13.60;99.90
23597;DHT22;40226;50.874;4.394;2022-07-01T00:42:16;13.60;99.90
23597;DHT22;40226;50.874;4.394;2022-07-01T00:44:42;13.60;99.90
23597;DHT22;40226;50.874;4.394;2022-07-01T00:47:10;13.60;99.90
23597;DHT22;40226;50.874;4.394;2022-07-01T00:49:37;13.50;99.90
23597;DHT22;40226;50.874;4.394;2022-07-01T00:52:04;13.50;99.90
23597;DHT22;40226;50.874;4.394;2022-07-01T00:54:31;13.50;99.90
23597;DHT22;40226;50.874;4.394;2022-07-01T00:56:56;13.50;99.90
23597;DHT22;40226;50.874;4.394;2022-07-01T00:59:22;13.50;99.90
23597;DHT22;40226;50.874;4.394;2022-07-01T01:01:48;13.60;99.90
23597;DHT22;40226;50.874;4.394;2022-07-01T01:04:14;13.60;99.90
23597;DHT22;40226;50.874;4.394;2022-07-01T01:06:40;13.60;99.90
23597;DHT22;40226;50.874;4.394;2022-07-01T01:09:05;13.50;99.90
23597;DHT22;40226;50.874;4.394;2022-07-01T01:11:31;13.60;99.90
23597;DHT22;40226;50.874;4.394;2022-07-01T01:13:57;13.50;99.90
23597;DHT22;40226;50.874;4.394;2022-07-01T01:16:23;13.50;99.90
23597;DHT22;40226;50.874;4.394;2022-07-01T01:18:49;13.40;99.90
23597;DHT22;40226;50.874;4.394;2022-07-01T01:21:15;13.50;99.90
23597;DHT22;40226;50.874;4.394;2022-07-01T01:23:41;13.50;99.90
23597;DHT22;40226;50.874;4.394;2022-07-01T01:26:21;13.60;99.90
23597;DHT22;40226;50.874;4.394;2022-07-01T01:28:47;13.70;99.90
23597;DHT22;40226;50.874;4.394;2022-07-01T01:31:14;13.60;99.90
23597;DHT22;40226;50.874;4.394;2022-07-01T01:33:39;13.60;99.90
23597;DHT22;40226;50.874;4.394;2022-07-01T01:36:05;13.70;99.90
23597;DHT22;40226;50.874;4.394;2022-07-01T01:38:34;13.60;99.90
23597;DHT22;40226;50.874;4.394;2022-07-01T01:41:00;13.70;99.90
23597;DHT22;40226;50.874;4.394;2022-07-01T01:43:26;13.80;99.90
23597;DHT22;40226;50.874;4.394;2022-07-01T01:45:51;13.80;99.90
23597;DHT22;40226;50.874;4.394;2022-07-01T01:48:17;14.00;99.90
23597;DHT22;40226;50.874;4.394;2022-07-01T01:50:42;13.90;99.90
23597;DHT22;40226;50.874;4.394;2022-07-01T01:53:08;13.90;99.90
23597;DHT22;40226;50.874;4.394;2022-07-01T01:55:33;13.90;99.90
23597;DHT22;40226;50.874;4.394;2022-07-01T01:57:59;13.80;99.90
23597;DHT22;40226;50.874;4.394;2022-07-01T02:00:25;13.70;99.90
23597;DHT22;40226;50.874;4.394;2022-07-01T02:02:50;13.70;99.90
23597;DHT22;40226;50.874;4.394;2022-07-01T02:05:16;13.80;99.90
23597;DHT22;40226;50.874;4.394;2022-07-01T02:07:41;13.70;99.90
23597;DHT22;40226;50.874;4.394;2022-07-01T02:10:07;13.80;99.90
23597;DHT22;40226;50.874;4.394;2022-07-01T02:12:33;13.80;99.90
23597;DHT22;40226;50.874;4.394;2022-07-01T02:14:59;13.60;99.90
23597;DHT22;40226;50.874;4.394;2022-07-01T02:17:24;13.60;99.90
23597;DHT22;40226;50.874;4.394;2022-07-01T02:19:52;13.60;99.90
23597;DHT22;40226;50.874;4.394;2022-07-01T02:22:17;13.60;99.90
23597;DHT22;40226;50.874;4.394;2022-07-01T02:24:43;13.70;99.90
23597;DHT22;40226;50.874;4.394;2022-07-01T02:27:10;13.70;99.90
23597;DHT22;40226;50.874;4.394;2022-07-01T02:29:35;13.60;99.90
23597;DHT22;40226;50.874;4.394;2022-07-01T02:32:01;13.50;99.90
23597;DHT22;40226;50.874;4.394;2022-07-01T02:34:26;13.50;99.90
23597;DHT22;40226;50.874;4.394;2022-07-01T02:36:52;13.60;99.90
23597;DHT22;40226;50.874;4.394;2022-07-01T02:39:20;13.60;99.90
23597;DHT22;40226;50.874;4.394;2022-07-01T02:41:46;13.60;99.90
23597;DHT22;40226;50.874;4.394;2022-07-01T02:44:30;13.60;99.90
23597;DHT22;40226;50.874;4.394;2022-07-01T02:46:56;13.50;99.90
23597;DHT22;40226;50.874;4.394;2022-07-01T02:49:22;13.50;99.90
23597;DHT22;40226;50.874;4.394;2022-07-01T02:51:48;13.40;99.90
23597;DHT22;40226;50.874;4.394;2022-07-01T02:54:13;13.40;99.90
23597;DHT22;40226;50.874;4.394;2022-07-01T02:56:39;13.40;99.90
23597;DHT22;40226;50.874;4.394;2022-07-01T02:59:04;13.40;99.90
23597;DHT22;40226;50.874;4.394;2022-07-01T03:01:30;13.40;99.90
23597;DHT22;40226;50.874;4.394;2022-07-01T03:03:55;13.30;99.90
23597;DHT22;40226;50.874;4.394;2022-07-01T03:06:21;13.30;99.90
23597;DHT22;40226;50.874;4.394;2022-07-01T03:08:47;13.20;99.90
23597;DHT22;40226;50.874;4.394;2022-07-01T03:11:12;13.20;99.90
23597;DHT22;40226;50.874;4.394;2022-07-01T03:13:38;13.30;99.90
23597;DHT22;40226;50.874;4.394;2022-07-01T03:16:03;13.30;99.90
23597;DHT22;40226;50.874;4.394;2022-07-01T03:18:29;13.20;99.90
23597;DHT22;40226;50.874;4.394;2022-07-01T03:20:54;13.20;99.90
23597;DHT22;40226;50.874;4.394;2022-07-01T03:23:20;13.20;99.90
23597;DHT22;40226;50.874;4.394;2022-07-01T03:25:45;13.10;99.90
23597;DHT22;40226;50.874;4.394;2022-07-01T03:28:11;13.10;99.90
23597;DHT22;40226;50.874;4.394;2022-07-01T03:30:37;13.10;99.90
23597;DHT22;40226;50.874;4.394;2022-07-01T03:33:02;13.10;99.90
23597;DHT22;40226;50.874;4.394;2022-07-01T03:35:28;13.10;99.90
23597;DHT22;40226;50.874;4.394;2022-07-01T03:38:11;13.10;99.90
23597;DHT22;40226;50.874;4.394;2022-07-01T03:40:38;13.10;99.90
23597;DHT22;40226;50.874;4.394;2022-07-01T03:43:04;13.20;99.90
23597;DHT22;40226;50.874;4.394;2022-07-01T03:45:30;13.20;99.90
23597;DHT22;40226;50.874;4.394;2022-07-01T03:47:56;13.20;99.90
23597;DHT22;40226;50.874;4.394;2022-07-01T03:50:25;13.20;99.90
23597;DHT22;40226;50.874;4.394;2022-07-01T03:52:51;13.20;99.90
23597;DHT22;40226;50.874;4.394;2022-07-01T03:55:40;13.20;99.90
23597;DHT22;40226;50.874;4.394;2022-07-01T03:58:06;13.10;99.90
23597;DHT22;40226;50.874;4.394;2022-07-01T04:00:37;13.10;99.90
23597;DHT22;40226;50.874;4.394;2022-07-01T04:03:04;13.10;99.90
23597;DHT22;40226;50.874;4.394;2022-07-01T04:05:35;13.10;99.90
23597;DHT22;40226;50.874;4.394;2022-07-01T04:08:02;13.00;99.90
23597;DHT22;40226;50.874;4.394;2022-07-01T04:10:30;13.10;99.90
23597;DHT22;40226;50.874;4.394;2022-07-01T04:12:59;13.20;99.90
23597;DHT22;40226;50.874;4.394;2022-07-01T04:15:25;13.20;99.90
23597;DHT22;40226;50.874;4.394;2022-07-01T04:17:51;13.20;99.90
23597;DHT22;40226;50.874;4.394;2022-07-01T04:20:17;13.10;99.90
23597;DHT22;40226;50.874;4.394;2022-07-01T04:22:42;13.10;99.90
23597;DHT22;40226;50.874;4.394;2022-07-01T04:25:08;13.10;99.90
23597;DHT22;40226;50.874;4.394;2022-07-01T04:27:34;13.00;99.90
23597;DHT22;40226;50.874;4.394;2022-07-01T04:29:59;13.00;99.90
23597;DHT22;40226;50.874;4.394;2022-07-01T04:32:27;13.00;99.90
23597;DHT22;40226;50.874;4.394;2022-07-01T04:34:53;13.00;99.90
23597;DHT22;40226;50.874;4.394;2022-07-01T04:37:19;13.10;99.90
23597;DHT22;40226;50.874;4.394;2022-07-01T04:39:45;13.10;99.90
23597;DHT22;40226;50.874;4.394;2022-07-01T04:42:10;13.20;99.90
23597;DHT22;40226;50.874;4.394;2022-07-01T04:44:37;13.20;99.90
23597;DHT22;40226;50.874;4.394;2022-07-01T04:47:04;13.20;99.90
23597;DHT22;40226;50.874;4.394;2022-07-01T04:49:30;13.00;99.90
23597;DHT22;40226;50.874;4.394;2022-07-01T04:51:57;13.00;99.90
23597;DHT22;40226;50.874;4.394;2022-07-01T04:54:23;13.10;99.90
23597;DHT22;40226;50.874;4.394;2022-07-01T04:56:49;13.20;99.90
23597;DHT22;40226;50.874;4.394;2022-07-01T04:59:15;13.10;99.90
23597;DHT22;40226;50.874;4.394;2022-07-01T05:01:42;13.40;99.90
23597;DHT22;40226;50.874;4.394;2022-07-01T05:04:08;13.80;99.90
23597;DHT22;40226;50.874;4.394;2022-07-01T05:06:34;13.80;99.90
23597;DHT22;40226;50.874;4.394;2022-07-01T05:09:00;13.80;99.90
23597;DHT22;40226;50.874;4.394;2022-07-01T05:11:26;13.80;99.90
23597;DHT22;40226;50.874;4.394;2022-07-01T05:13:51;13.60;99.90
23597;DHT22;40226;50.874;4.394;2022-07-01T05:16:18;13.80;99.90
23597;DHT22;40226;50.874;4.394;2022-07-01T05:18:44;13.80;99.90
23597;DHT22;40226;50.874;4.394;2022-07-01T05:21:29;13.90;99.90
23597;DHT22;40226;50.874;4.394;2022-07-01T05:24:12;13.70;99.90
23597;DHT22;40226;50.874;4.394;2022-07-01T05:26:41;13.50;99.90
23597;DHT22;40226;50.874;4.394;2022-07-01T05:29:08;13.50;99.90
23597;DHT22;40226;50.874;4.394;2022-07-01T05:31:35;13.40;99.90
23597;DHT22;40226;50.874;4.394;2022-07-01T05:34:01;13.40;99.90
23597;DHT22;40226;50.874;4.394;2022-07-01T05:36:27;13.40;99.90
23597;DHT22;40226;50.874;4.394;2022-07-01T05:38:53;13.60;99.90
23597;DHT22;40226;50.874;4.394;2022-07-01T05:41:18;13.70;99.90
23597;DHT22;40226;50.874;4.394;2022-07-01T05:43:44;13.80;99.90
23597;DHT22;40226;50.874;4.394;2022-07-01T05:46:10;13.80;99.90
23597;DHT22;40226;50.874;4.394;2022-07-01T05:48:36;13.70;99.90
23597;DHT22;40226;50.874;4.394;2022-07-01T05:51:02;13.70;99.90
23597;DHT22;40226;50.874;4.394;2022-07-01T05:53:28;13.90;99.90
23597;DHT22;40226;50.874;4.394;2022-07-01T05:55:53;14.00;99.90
23597;DHT22;40226;50.874;4.394;2022-07-01T05:58:19;14.20;99.90
23597;DHT22;40226;50.874;4.394;2022-07-01T06:00:45;14.30;99.90
23597;DHT22;40226;50.874;4.394;2022-07-01T06:03:14;14.50;99.90
23597;DHT22;40226;50.874;4.394;2022-07-01T06:05:41;14.40;99.90
23597;DHT22;40226;50.874;4.394;2022-07-01T06:08:07;14.40;99.90
23597;DHT22;40226;50.874;4.394;2022-07-01T06:10:36;14.20;99.90
23597;DHT22;40226;50.874;4.394;2022-07-01T06:13:02;14.30;99.90
23597;DHT22;40226;50.874;4.394;2022-07-01T06:15:28;14.40;99.90
23597;DHT22;40226;50.874;4.394;2022-07-01T06:17:54;14.30;99.90
23597;DHT22;40226;50.874;4.394;2022-07-01T06:20:20;14.30;99.90
23597;DHT22;40226;50.874;4.394;2022-07-01T06:22:46;14.40;99.90
23597;DHT22;40226;50.874;4.394;2022-07-01T06:25:11;14.50;99.90
23597;DHT22;40226;50.874;4.394;2022-07-01T06:27:44;14.50;99.90
23597;DHT22;40226;50.874;4.394;2022-07-01T06:30:10;14.50;99.90
23597;DHT22;40226;50.874;4.394;2022-07-01T06:32:36;14.60;99.90
23597;DHT22;40226;50.874;4.394;2022-07-01T06:35:02;14.70;99.90
23597;DHT22;40226;50.874;4.394;2022-07-01T06:37:28;14.80;99.90
23597;DHT22;40226;50.874;4.394;2022-07-01T06:39:56;14.90;99.90
23597;DHT22;40226;50.874;4.394;2022-07-01T06:42:22;14.90;99.90
23597;DHT22;40226;50.874;4.394;2022-07-01T06:44:48;15.00;99.90
23597;DHT22;40226;50.874;4.394;2022-07-01T06:47:14;15.30;99.90
23597;DHT22;40226;50.874;4.394;2022-07-01T06:49:39;15.40;99.90
23597;DHT22;40226;50.874;4.394;2022-07-01T06:52:05;15.40;99.90
23597;DHT22;40226;50.874;4.394;2022-07-01T06:54:31;15.10;99.90
23597;DHT22;40226;50.874;4.394;2022-07-01T06:56:56;15.30;99.90
23597;DHT22;40226;50.874;4.394;2022-07-01T06:59:22;15.40;99.90
23597;DHT22;40226;50.874;4.394;2022-07-01T07:01:48;15.60;99.90
23597;DHT22;40226;50.874;4.394;2022-07-01T07:04:15;15.80;99.90
23597;DHT22;40226;50.874;4.394;2022-07-01T07:06:40;16.20;99.90
23597;DHT22;40226;50.874;4.394;2022-07-01T07:09:06;16.00;99.90
23597;DHT22;40226;50.874;4.394;2022-07-01T07:11:32;15.70;99.90
23597;DHT22;40226;50.874;4.394;2022-07-01T07:13:57;15.60;99.90
23597;DHT22;40226;50.874;4.394;2022-07-01T07:16:23;15.70;99.90
23597;DHT22;40226;50.874;4.394;2022-07-01T07:18:49;15.90;99.90
23597;DHT22;40226;50.874;4.394;2022-07-01T07:21:15;15.90;99.90
23597;DHT22;40226;50.874;4.394;2022-07-01T07:23:41;15.90;99.90
23597;DHT22;40226;50.874;4.394;2022-07-01T07:26:08;15.70;99.90
23597;DHT22;40226;50.874;4.394;2022-07-01T07:28:33;15.70;99.90
23597;DHT22;40226;50.874;4.394;2022-07-01T07:30:59;15.70;99.90
23597;DHT22;40226;50.874;4.394;2022-07-01T07:33:25;15.80;99.90
23597;DHT22;40226;50.874;4.394;2022-07-01T07:35:50;15.80;99.90
23597;DHT22;40226;50.874;4.394;2022-07-01T07:38:16;15.90;99.90
23597;DHT22;40226;50.874;4.394;2022-07-01T07:40:41;16.30;99.90
23597;DHT22;40226;50.874;4.394;2022-07-01T07:43:07;16.40;99.90
23597;DHT22;40226;50.874;4.394;2022-07-01T07:45:34;16.50;99.90
23597;DHT22;40226;50.874;4.394;2022-07-01T07:47:59;16.70;99.90
23597;DHT22;40226;50.874;4.394;2022-07-01T07:50:26;16.60;99.90
23597;DHT22;40226;50.874;4.394;2022-07-01T07:52:52;16.80;99.90
23597;DHT22;40226;50.874;4.394;2022-07-01T07:55:18;17.10;99.90
23597;DHT22;40226;50.874;4.394;2022-07-01T07:57:43;17.10;99.90
23597;DHT22;40226;50.874;4.394;2022-07-01T08:00:11;17.00;99.90
23597;DHT22;40226;50.874;4.394;2022-07-01T08:02:38;17.10;99.90
23597;DHT22;40226;50.874;4.394;2022-07-01T08:05:04;17.20;99.90
23597;DHT22;40226;50.874;4.394;2022-07-01T08:07:30;17.10;99.90
23597;DHT22;40226;50.874;4.394;2022-07-01T08:10:09;17.10;99.90
23597;DHT22;40226;50.874;4.394;2022-07-01T08:12:36;17.30;99.90
23597;DHT22;40226;50.874;4.394;2022-07-01T08:15:05;17.20;99.90
23597;DHT22;40226;50.874;4.394;2022-07-01T08:17:31;17.40;99.90
23597;DHT22;40226;50.874;4.394;2022-07-01T08:19:57;17.40;99.90
23597;DHT22;40226;50.874;4.394;2022-07-01T08:22:23;17.50;99.90
23597;DHT22;40226;50.874;4.394;2022-07-01T08:24:48;16.80;99.90
23597;DHT22;40226;50.874;4.394;2022-07-01T08:27:14;16.90;99.90
23597;DHT22;40226;50.874;4.394;2022-07-01T08:30:06;17.00;99.90
23597;DHT22;40226;50.874;4.394;2022-07-01T08:32:32;17.20;99.90
23597;DHT22;40226;50.874;4.394;2022-07-01T08:34:58;17.20;99.90
23597;DHT22;40226;50.874;4.394;2022-07-01T08:37:24;17.40;99.90
23597;DHT22;40226;50.874;4.394;2022-07-01T08:39:49;17.60;99.90
23597;DHT22;40226;50.874;4.394;2022-07-01T08:42:15;17.50;99.90
23597;DHT22;40226;50.874;4.394;2022-07-01T08:44:40;17.50;99.90
23597;DHT22;40226;50.874;4.394;2022-07-01T08:47:11;17.70;99.90
23597;DHT22;40226;50.874;4.394;2022-07-01T08:49:37;17.80;99.90
23597;DHT22;40226;50.874;4.394;2022-07-01T08:52:03;17.80;99.90
23597;DHT22;40226;50.874;4.394;2022-07-01T08:54:28;18.00;99.90
23597;DHT22;40226;50.874;4.394;2022-07-01T08:56:54;18.30;99.90
23597;DHT22;40226;50.874;4.394;2022-07-01T08:59:25;18.30;99.90
23597;DHT22;40226;50.874;4.394;2022-07-01T09:02:03;18.30;99.90
23597;DHT22;40226;50.874;4.394;2022-07-01T09:04:30;18.10;99.90
23597;DHT22;40226;50.874;4.394;2022-07-01T09:07:04;18.00;99.90
23597;DHT22;40226;50.874;4.394;2022-07-01T09:09:34;18.00;99.90
23597;DHT22;40226;50.874;4.394;2022-07-01T09:12:00;18.10;99.90
23597;DHT22;40226;50.874;4.394;2022-07-01T09:14:30;18.30;99.90
23597;DHT22;40226;50.874;4.394;2022-07-01T09:17:04;18.60;99.90
23597;DHT22;40226;50.874;4.394;2022-07-01T09:19:33;18.80;99.90
23597;DHT22;40226;50.874;4.394;2022-07-01T09:22:00;18.60;99.90
23597;DHT22;40226;50.874;4.394;2022-07-01T09:29:29;18.30;99.90
23597;DHT22;40226;50.874;4.394;2022-07-01T09:31:57;18.40;99.90
23597;DHT22;40226;50.874;4.394;2022-07-01T09:34:23;18.50;99.90
23597;DHT22;40226;50.874;4.394;2022-07-01T09:36:54;18.40;99.90
23597;DHT22;40226;50.874;4.394;2022-07-01T09:39:20;18.50;99.90
23597;DHT22;40226;50.874;4.394;2022-07-01T09:41:45;18.70;99.90
23597;DHT22;40226;50.874;4.394;2022-07-01T09:44:11;18.70;99.90
23597;DHT22;40226;50.874;4.394;2022-07-01T09:46:37;18.80;99.90
23597;DHT22;40226;50.874;4.394;2022-07-01T09:49:03;19.20;99.90
23597;DHT22;40226;50.874;4.394;2022-07-01T09:51:28;19.20;99.90
23597;DHT22;40226;50.874;4.394;2022-07-01T09:53:56;19.20;99.90
23597;DHT22;40226;50.874;4.394;2022-07-01T09:56:24;19.50;99.90
23597;DHT22;40226;50.874;4.394;2022-07-01T09:58:50;19.80;99.90
23597;DHT22;40226;50.874;4.394;2022-07-01T10:01:16;19.50;99.90
23597;DHT22;40226;50.874;4.394;2022-07-01T10:03:42;19.10;99.90
23597;DHT22;40226;50.874;4.394;2022-07-01T10:14:06;18.80;99.90
23597;DHT22;40226;50.874;4.394;2022-07-01T10:16:32;18.70;99.90
23597;DHT22;40226;50.874;4.394;2022-07-01T10:18:59;18.60;99.90
23597;DHT22;40226;50.874;4.394;2022-07-01T10:21:31;19.00;99.90
23597;DHT22;40226;50.874;4.394;2022-07-01T10:24:17;19.30;99.90
23597;DHT22;40226;50.874;4.394;2022-07-01T10:26:44;19.30;99.90
23597;DHT22;40226;50.874;4.394;2022-07-01T10:29:30;19.50;99.90
23597;DHT22;40226;50.874;4.394;2022-07-01T10:32:07;19.50;99.90
23597;DHT22;40226;50.874;4.394;2022-07-01T10:34:35;19.70;99.90
23597;DHT22;40226;50.874;4.394;2022-07-01T10:37:06;19.60;99.90
23597;DHT22;40226;50.874;4.394;2022-07-01T10:39:58;20.00;99.90
23597;DHT22;40226;50.874;4.394;2022-07-01T10:42:57;19.50;99.90
23597;DHT22;40226;50.874;4.394;2022-07-01T10:45:24;19.20;99.90
23597;DHT22;40226;50.874;4.394;2022-07-01T10:48:24;19.20;99.90
23597;DHT22;40226;50.874;4.394;2022-07-01T10:50:51;19.30;99.90
23597;DHT22;40226;50.874;4.394;2022-07-01T10:53:17;19.40;99.90
23597;DHT22;40226;50.874;4.394;2022-07-01T10:55:51;19.20;99.90
23597;DHT22;40226;50.874;4.394;2022-07-01T10:58:18;19.10;99.90
23597;DHT22;40226;50.874;4.394;2022-07-01T11:00:47;19.20;99.90
23597;DHT22;40226;50.874;4.394;2022-07-01T11:03:21;19.60;99.90
23597;DHT22;40226;50.874;4.394;2022-07-01T11:05:50;19.60;99.90
23597;DHT22;40226;50.874;4.394;2022-07-01T11:08:16;19.70;99.90
23597;DHT22;40226;50.874;4.394;2022-07-01T11:10:42;19.30;99.90
23597;DHT22;40226;50.874;4.394;2022-07-01T11:13:08;19.00;99.90
23597;DHT22;40226;50.874;4.394;2022-07-01T11:15:34;19.00;99.90
23597;DHT22;40226;50.874;4.394;2022-07-01T11:18:01;19.10;99.90
23597;DHT22;40226;50.874;4.394;2022-07-01T11:20:29;19.10;99.90
23597;DHT22;40226;50.874;4.394;2022-07-01T11:22:55;19.40;99.90
23597;DHT22;40226;50.874;4.394;2022-07-01T11:25:21;20.00;99.90
23597;DHT22;40226;50.874;4.394;2022-07-01T11:27:48;20.80;99.90
23597;DHT22;40226;50.874;4.394;2022-07-01T11:30:15;21.30;99.90
23597;DHT22;40226;50.874;4.394;2022-07-01T11:32:47;21.50;99.90
23597;DHT22;40226;50.874;4.394;2022-07-01T11:35:16;22.10;99.90
23597;DHT22;40226;50.874;4.394;2022-07-01T11:38:07;22.60;99.90
23597;DHT22;40226;50.874;4.394;2022-07-01T11:40:52;23.60;99.90
23597;DHT22;40226;50.874;4.394;2022-07-01T11:43:40;23.50;99.90
23597;DHT22;40226;50.874;4.394;2022-07-01T11:46:06;23.40;99.90
23597;DHT22;40226;50.874;4.394;2022-07-01T11:48:39;23.70;99.90
23597;DHT22;40226;50.874;4.394;2022-07-01T11:51:13;24.60;99.00
23597;DHT22;40226;50.874;4.394;2022-07-01T11:53:40;25.10;97.30
23597;DHT22;40226;50.874;4.394;2022-07-01T11:56:06;24.80;96.30
23597;DHT22;40226;50.874;4.394;2022-07-01T12:01:19;23.90;97.40
23597;DHT22;40226;50.874;4.394;2022-07-01T12:03:45;23.70;98.40
23597;DHT22;40226;50.874;4.394;2022-07-01T12:06:10;25.00;97.20
23597;DHT22;40226;50.874;4.394;2022-07-01T12:08:36;25.90;95.70
23597;DHT22;40226;50.874;4.394;2022-07-01T12:11:02;26.20;93.10
23597;DHT22;40226;50.874;4.394;2022-07-01T12:13:27;25.70;92.50
23597;DHT22;40226;50.874;4.394;2022-07-01T12:15:53;25.80;91.20
23597;DHT22;40226;50.874;4.394;2022-07-01T12:18:19;25.10;91.20
23597;DHT22;40226;50.874;4.394;2022-07-01T12:20:53;24.80;92.00
23597;DHT22;40226;50.874;4.394;2022-07-01T12:23:19;25.90;90.30
23597;DHT22;40226;50.874;4.394;2022-07-01T12:25:52;25.60;89.80
23597;DHT22;40226;50.874;4.394;2022-07-01T12:28:43;25.90;88.30
23597;DHT22;40226;50.874;4.394;2022-07-01T12:31:10;25.40;88.90
23597;DHT22;40226;50.874;4.394;2022-07-01T12:33:37;25.30;85.80
23597;DHT22;40226;50.874;4.394;2022-07-01T12:36:05;25.40;88.60
23597;DHT22;40226;50.874;4.394;2022-07-01T12:38:31;25.50;85.90
23597;DHT22;40226;50.874;4.394;2022-07-01T12:40:57;25.10;88.30
23597;DHT22;40226;50.874;4.394;2022-07-01T12:43:31;26.10;84.80
23597;DHT22;40226;50.874;4.394;2022-07-01T12:45:58;25.30;85.20
23597;DHT22;40226;50.874;4.394;2022-07-01T12:48:25;25.10;85.00
23597;DHT22;40226;50.874;4.394;2022-07-01T12:50:56;25.70;86.60
23597;DHT22;40226;50.874;4.394;2022-07-01T12:53:23;25.90;83.80
23597;DHT22;40226;50.874;4.394;2022-07-01T12:55:54;25.30;84.80
23597;DHT22;40226;50.874;4.394;2022-07-01T12:58:22;25.60;85.40
23597;DHT22;40226;50.874;4.394;2022-07-01T13:00:51;25.80;84.00
23597;DHT22;40226;50.874;4.394;2022-07-01T13:03:22;25.60;84.70
23597;DHT22;40226;50.874;4.394;2022-07-01T13:05:49;26.70;82.20
23597;DHT22;40226;50.874;4.394;2022-07-01T13:08:18;28.10;77.50
23597;DHT22;40226;50.874;4.394;2022-07-01T13:10:45;28.30;74.80
23597;DHT22;40226;50.874;4.394;2022-07-01T13:13:12;27.10;77.10
23597;DHT22;40226;50.874;4.394;2022-07-01T13:15:38;28.30;74.50
23597;DHT22;40226;50.874;4.394;2022-07-01T13:18:04;28.50;73.10
23597;DHT22;40226;50.874;4.394;2022-07-01T13:20:30;27.50;74.70
23597;DHT22;40226;50.874;4.394;2022-07-01T13:22:56;27.90;73.00
23597;DHT22;40226;50.874;4.394;2022-07-01T13:25:22;27.10;74.00
23597;DHT22;40226;50.874;4.394;2022-07-01T13:27:47;26.50;75.10
23597;DHT22;40226;50.874;4.394;2022-07-01T13:30:14;25.70;77.20
23597;DHT22;40226;50.874;4.394;2022-07-01T13:32:41;24.70;81.50
23597;DHT22;40226;50.874;4.394;2022-07-01T13:35:10;24.70;81.50
23597;DHT22;40226;50.874;4.394;2022-07-01T13:37:36;24.50;81.30
23597;DHT22;40226;50.874;4.394;2022-07-01T13:40:03;24.50;81.70
23597;DHT22;40226;50.874;4.394;2022-07-01T13:42:28;23.80;84.60
23597;DHT22;40226;50.874;4.394;2022-07-01T13:44:54;23.70;85.60
23597;DHT22;40226;50.874;4.394;2022-07-01T13:47:20;23.30;85.60
23597;DHT22;40226;50.874;4.394;2022-07-01T13:49:46;22.70;88.60
23597;DHT22;40226;50.874;4.394;2022-07-01T13:52:11;22.40;89.20
23597;DHT22;40226;50.874;4.394;2022-07-01T13:54:38;22.30;89.80
23597;DHT22;40226;50.874;4.394;2022-07-01T13:57:04;22.10;90.50
23597;DHT22;40226;50.874;4.394;2022-07-01T13:59:30;21.70;91.10
23597;DHT22;40226;50.874;4.394;2022-07-01T14:01:56;21.50;91.80
23597;DHT22;40226;50.874;4.394;2022-07-01T14:04:22;21.60;92.40
23597;DHT22;40226;50.874;4.394;2022-07-01T14:06:48;21.80;92.60
23597;DHT22;40226;50.874;4.394;2022-07-01T14:09:13;21.90;92.20
23597;DHT22;40226;50.874;4.394;2022-07-01T14:11:39;21.60;92.90
23597;DHT22;40226;50.874;4.394;2022-07-01T14:14:05;21.80;92.80
23597;DHT22;40226;50.874;4.394;2022-07-01T14:16:30;21.30;93.30
23597;DHT22;40226;50.874;4.394;2022-07-01T14:18:57;21.00;94.10
23597;DHT22;40226;50.874;4.394;2022-07-01T14:21:23;21.00;95.10
23597;DHT22;40226;50.874;4.394;2022-07-01T14:23:49;20.80;95.30
23597;DHT22;40226;50.874;4.394;2022-07-01T14:26:15;20.80;96.10
23597;DHT22;40226;50.874;4.394;2022-07-01T14:28:41;20.70;97.40
23597;DHT22;40226;50.874;4.394;2022-07-01T14:31:07;21.00;97.80
23597;DHT22;40226;50.874;4.394;2022-07-01T14:33:33;21.40;97.60
23597;DHT22;40226;50.874;4.394;2022-07-01T14:35:59;21.70;97.40
23597;DHT22;40226;50.874;4.394;2022-07-01T14:38:25;22.20;97.00
23597;DHT22;40226;50.874;4.394;2022-07-01T14:40:51;22.50;96.40
23597;DHT22;40226;50.874;4.394;2022-07-01T14:43:16;22.50;95.50
23597;DHT22;40226;50.874;4.394;2022-07-01T14:45:42;24.30;94.20
23597;DHT22;40226;50.874;4.394;2022-07-01T14:48:08;25.70;92.30
23597;DHT22;40226;50.874;4.394;2022-07-01T14:50:34;27.40;90.90
23597;DHT22;40226;50.874;4.394;2022-07-01T14:53:00;27.80;88.90
23597;DHT22;40226;50.874;4.394;2022-07-01T14:55:28;28.00;87.40
23597;DHT22;40226;50.874;4.394;2022-07-01T14:57:54;27.40;86.50
23597;DHT22;40226;50.874;4.394;2022-07-01T15:00:20;26.60;86.50
23597;DHT22;40226;50.874;4.394;2022-07-01T15:02:46;26.30;87.80
23597;DHT22;40226;50.874;4.394;2022-07-01T15:05:12;24.50;90.40
23597;DHT22;40226;50.874;4.394;2022-07-01T15:07:38;24.20;92.00
23597;DHT22;40226;50.874;4.394;2022-07-01T15:10:05;24.60;92.60
23597;DHT22;40226;50.874;4.394;2022-07-01T15:12:31;25.60;91.20
23597;DHT22;40226;50.874;4.394;2022-07-01T15:14:57;25.80;91.20
23597;DHT22;40226;50.874;4.394;2022-07-01T15:17:23;25.70;90.90
23597;DHT22;40226;50.874;4.394;2022-07-01T15:19:49;26.20;87.60
23597;DHT22;40226;50.874;4.394;2022-07-01T15:22:15;25.90;89.60
23597;DHT22;40226;50.874;4.394;2022-07-01T15:24:40;27.60;85.80
23597;DHT22;40226;50.874;4.394;2022-07-01T15:27:07;27.70;84.60
23597;DHT22;40226;50.874;4.394;2022-07-01T15:29:33;27.20;81.80
23597;DHT22;40226;50.874;4.394;2022-07-01T15:31:59;26.90;84.30
23597;DHT22;40226;50.874;4.394;2022-07-01T15:34:26;25.50;86.50
23597;DHT22;40226;50.874;4.394;2022-07-01T15:36:51;24.30;89.40
23597;DHT22;40226;50.874;4.394;2022-07-01T15:39:17;24.50;90.10
23597;DHT22;40226;50.874;4.394;2022-07-01T15:41:44;24.00;90.70
23597;DHT22;40226;50.874;4.394;2022-07-01T15:44:11;24.00;91.00
23597;DHT22;40226;50.874;4.394;2022-07-01T15:46:37;24.50;91.10